Time;durP1;ratioP1;P1;durP2;ratioP2;P2;SDS_P1;SDS_P2;PMS_P1;PMS_P2;Temp;Humidity;BMP_temperature;BMP_pressure;BME280_temperature;BME280_humidity;BME280_pressure;Samples;Min_cycle;Max_cycle;Signal;HPM_P1;HPM_P2
2023/07/07 00:06:15;;;;;;;;;;;13.40;99.90;;;;;;4996518;28;19925;-75
2023/07/07 00:09:00;;;;;;;;;;;13.40;99.90;;;;;;5003054;28;19920;-75
2023/07/07 00:12:05;;;;;;;;;;;13.30;99.90;;;;;;5019657;28;20302;-75
2023/07/07 00:15:27;;;;;;;;;;;11.30;99.90;;;;;;5019796;28;20144;-74
2023/07/07 00:18:46;;;;;;;;;;;13.20;99.90;;;;;;5032300;28;20315;-73
2023/07/07 00:24:57;;;;;;;;;;;13.10;99.90;;;;;;4979877;28;19932;-74
2023/07/07 00:31:23;;;;;;;;;;;13.00;99.90;;;;;;4974067;28;19929;-74
2023/07/07 00:34:17;;;;;;;;;;;13.00;99.90;;;;;;4998712;28;19921;-75
2023/07/07 00:37:06;;;;;;;;;;;13.00;99.90;;;;;;4986607;28;19972;-74
2023/07/07 00:39:52;;;;;;;;;;;12.90;99.90;;;;;;4986413;28;20011;-74
2023/07/07 00:46:38;;;;;;;;;;;12.90;99.90;;;;;;4975498;28;19932;-74
2023/07/07 00:56:07;;;;;;;;;;;12.70;99.90;;;;;;4985329;28;20410;-74
2023/07/07 00:59:30;;;;;;;;;;;12.70;99.90;;;;;;4965552;28;19933;-74
2023/07/07 01:02:33;;;;;;;;;;;12.70;99.90;;;;;;4946892;28;19925;-74
2023/07/07 01:06:08;;;;;;;;;;;12.80;99.90;;;;;;4952293;28;19925;-75
2023/07/07 01:08:57;;;;;;;;;;;12.70;99.90;;;;;;4972887;28;19989;-73
2023/07/07 01:15:07;;;;;;;;;;;12.60;99.90;;;;;;5010558;28;19996;-76
2023/07/07 01:28:23;;;;;;;;;;;12.60;99.90;;;;;;5011558;28;19962;-74
2023/07/07 01:31:09;;;;;;;;;;;14.50;99.90;;;;;;5011812;28;19928;-74
2023/07/07 01:34:24;;;;;;;;;;;12.60;99.90;;;;;;5030723;28;19956;-76
2023/07/07 01:37:42;;;;;;;;;;;12.50;99.90;;;;;;5028924;28;19920;-75
2023/07/07 01:40:30;;;;;;;;;;;12.50;99.90;;;;;;5018854;28;19924;-76
2023/07/07 01:43:47;;;;;;;;;;;11.30;99.90;;;;;;5032037;28;20349;-77
2023/07/07 01:50:27;;;;;;;;;;;12.40;99.90;;;;;;5031980;28;19920;-74
2023/07/07 01:53:42;;;;;;;;;;;12.40;99.90;;;;;;5016576;28;19931;-75
2023/07/07 01:56:24;;;;;;;;;;;12.40;99.90;;;;;;5013839;28;20051;-78
2023/07/07 02:02:25;;;;;;;;;;;12.30;99.90;;;;;;5013727;28;20107;-77
2023/07/07 02:05:40;;;;;;;;;;;12.30;99.90;;;;;;5016366;28;19971;-74
2023/07/07 02:08:40;;;;;;;;;;;12.30;99.90;;;;;;5013354;28;19920;-75
2023/07/07 02:21:27;;;;;;;;;;;12.30;99.90;;;;;;4974877;28;19925;-77
2023/07/07 02:27:42;;;;;;;;;;;11.20;99.90;;;;;;4987038;28;19929;-77
2023/07/07 02:36:46;;;;;;;;;;;12.20;99.90;;;;;;4994908;28;20476;-75
2023/07/07 02:42:35;;;;;;;;;;;12.20;99.90;;;;;;4994680;28;19925;-75
2023/07/07 02:49:00;;;;;;;;;;;12.10;99.90;;;;;;4993963;28;19929;-77
2023/07/07 02:51:52;;;;;;;;;;;12.10;99.90;;;;;;5000983;28;19925;-77
2023/07/07 02:54:46;;;;;;;;;;;12.00;99.90;;;;;;4976084;28;20631;-76
2023/07/07 03:01:13;;;;;;;;;;;12.10;99.90;;;;;;4973806;28;20491;-76
2023/07/07 03:07:08;;;;;;;;;;;12.00;99.90;;;;;;4959030;28;19929;-75
2023/07/07 03:09:52;;;;;;;;;;;12.00;99.90;;;;;;4972417;28;19945;-75
2023/07/07 03:12:37;;;;;;;;;;;11.90;99.90;;;;;;4973785;28;20304;-75
2023/07/07 03:19:21;;;;;;;;;;;11.90;99.90;;;;;;4897551;29;19934;-75
2023/07/07 03:25:39;;;;;;;;;;;11.90;99.90;;;;;;4917737;29;19937;-75
2023/07/07 03:28:41;;;;;;;;;;;11.90;99.90;;;;;;4969915;28;19981;-78
2023/07/07 03:34:36;;;;;;;;;;;11.80;99.90;;;;;;4971344;28;21142;-78
2023/07/07 03:37:37;;;;;;;;;;;11.70;99.90;;;;;;4987671;28;19964;-75
2023/07/07 03:40:36;;;;;;;;;;;11.70;99.90;;;;;;5014429;28;20266;-75
2023/07/07 03:43:33;;;;;;;;;;;11.70;99.90;;;;;;5015839;28;19921;-76
2023/07/07 03:46:17;;;;;;;;;;;11.70;99.90;;;;;;5031464;28;19927;-76
2023/07/07 03:49:23;;;;;;;;;;;11.70;99.90;;;;;;5020328;28;19925;-75
2023/07/07 03:52:28;;;;;;;;;;;10.40;99.90;;;;;;4990886;28;20753;-75
2023/07/07 03:55:07;;;;;;;;;;;11.80;99.90;;;;;;4991024;28;19925;-75
2023/07/07 03:58:13;;;;;;;;;;;11.80;99.90;;;;;;4964810;28;19922;-76
2023/07/07 04:01:16;;;;;;;;;;;11.80;99.90;;;;;;4994193;28;19930;-75
2023/07/07 04:04:11;;;;;;;;;;;11.80;99.90;;;;;;4964718;28;20589;-76
2023/07/07 04:06:59;;;;;;;;;;;11.80;99.90;;;;;;4981503;28;19954;-76
2023/07/07 04:10:05;;;;;;;;;;;11.80;99.90;;;;;;4954584;28;19926;-78
2023/07/07 04:20:03;;;;;;;;;;;11.80;99.90;;;;;;4958913;28;19925;-74
2023/07/07 04:26:20;;;;;;;;;;;11.90;99.90;;;;;;4955124;28;20353;-75
2023/07/07 04:29:14;;;;;;;;;;;10.90;99.90;;;;;;5006946;28;20017;-73
2023/07/07 04:32:07;;;;;;;;;;;12.00;99.90;;;;;;5032863;28;19939;-76
2023/07/07 04:35:16;;;;;;;;;;;12.00;99.90;;;;;;5033553;28;19959;-78
2023/07/07 04:41:04;;;;;;;;;;;12.10;99.90;;;;;;5018470;28;19924;-77
2023/07/07 04:43:54;;;;;;;;;;;12.10;99.90;;;;;;5002806;28;19987;-76
2023/07/07 04:46:28;;;;;;;;;;;12.20;99.90;;;;;;5031894;28;19951;-76
2023/07/07 04:49:28;;;;;;;;;;;12.30;99.90;;;;;;5031942;28;19928;-79
2023/07/07 04:52:14;;;;;;;;;;;12.30;99.90;;;;;;5020834;28;19971;-76
2023/07/07 04:55:07;;;;;;;;;;;12.40;99.90;;;;;;5020088;28;20510;-79
2023/07/07 04:57:53;;;;;;;;;;;14.40;99.90;;;;;;5019131;28;19935;-75
2023/07/07 05:00:53;;;;;;;;;;;12.60;99.90;;;;;;5031917;28;19935;-77
2023/07/07 05:03:47;;;;;;;;;;;12.70;99.90;;;;;;5031692;28;20311;-76
2023/07/07 05:06:13;;;;;;;;;;;12.80;99.90;;;;;;5016609;28;20011;-77
2023/07/07 05:08:40;;;;;;;;;;;12.90;99.90;;;;;;4985411;28;19925;-74
2023/07/07 05:11:07;;;;;;;;;;;13.00;99.90;;;;;;5030621;28;19939;-80
2023/07/07 05:13:32;;;;;;;;;;;13.10;99.90;;;;;;5019396;28;19927;-79
2023/07/07 05:16:04;;;;;;;;;;;13.20;99.90;;;;;;5004812;28;19928;-81
2023/07/07 05:18:30;;;;;;;;;;;13.30;99.90;;;;;;5014865;28;20610;-79
2023/07/07 05:20:56;;;;;;;;;;;13.40;99.90;;;;;;5022066;28;19925;-82
2023/07/07 05:23:22;;;;;;;;;;;13.50;99.90;;;;;;5002725;28;19924;-75
2023/07/07 05:25:47;;;;;;;;;;;13.60;99.90;;;;;;5048065;28;19924;-78
2023/07/07 05:28:13;;;;;;;;;;;13.80;99.90;;;;;;5018359;28;19931;-78
2023/07/07 05:30:39;;;;;;;;;;;14.00;99.90;;;;;;5019152;28;20351;-79
2023/07/07 05:33:05;;;;;;;;;;;14.10;99.90;;;;;;5023793;28;19932;-84
2023/07/07 05:35:31;;;;;;;;;;;14.20;99.90;;;;;;5021993;28;19990;-80
2023/07/07 05:37:56;;;;;;;;;;;14.30;99.90;;;;;;5021385;28;20333;-78
2023/07/07 05:40:22;;;;;;;;;;;14.50;99.90;;;;;;5022915;28;20356;-80
2023/07/07 05:42:47;;;;;;;;;;;14.60;99.90;;;;;;5021307;28;19920;-81
2023/07/07 05:45:13;;;;;;;;;;;14.70;99.90;;;;;;5023306;28;19925;-77
2023/07/07 05:47:39;;;;;;;;;;;14.90;99.90;;;;;;5018562;28;19929;-80
2023/07/07 05:50:37;;;;;;;;;;;15.00;99.90;;;;;;5034303;28;19948;-73
2023/07/07 05:53:21;;;;;;;;;;;15.20;99.90;;;;;;5035901;28;20055;-76
2023/07/07 05:56:17;;;;;;;;;;;15.40;99.90;;;;;;5015496;28;19929;-77
2023/07/07 05:59:18;;;;;;;;;;;15.60;99.90;;;;;;5037316;28;19925;-75
2023/07/07 06:05:16;;;;;;;;;;;16.00;99.90;;;;;;5017497;28;21370;-75
2023/07/07 06:08:05;;;;;;;;;;;16.20;99.90;;;;;;5028689;28;19947;-75
2023/07/07 06:10:34;;;;;;;;;;;16.40;99.90;;;;;;5035169;28;19924;-75
2023/07/07 06:13:28;;;;;;;;;;;16.50;99.90;;;;;;5044552;28;19932;-75
2023/07/07 06:16:18;;;;;;;;;;;16.70;99.90;;;;;;5020036;28;19940;-75
2023/07/07 06:18:57;;;;;;;;;;;16.80;99.90;;;;;;5020118;28;19924;-76
2023/07/07 06:21:52;;;;;;;;;;;17.00;99.90;;;;;;5017142;28;19924;-75
2023/07/07 06:24:36;;;;;;;;;;;17.10;99.90;;;;;;4998096;28;19928;-75
2023/07/07 06:27:19;;;;;;;;;;;17.30;99.90;;;;;;5033978;28;19936;-75
2023/07/07 06:30:14;;;;;;;;;;;17.40;99.90;;;;;;5030880;28;20302;-75
2023/07/07 06:32:53;;;;;;;;;;;17.60;99.90;;;;;;5036078;28;19931;-75
2023/07/07 06:35:31;;;;;;;;;;;17.80;99.90;;;;;;5034002;28;20524;-75
2023/07/07 06:38:01;;;;;;;;;;;17.90;99.90;;;;;;5019121;28;19920;-75
2023/07/07 06:40:35;;;;;;;;;;;18.10;99.90;;;;;;5023386;28;19928;-75
2023/07/07 06:43:02;;;;;;;;;;;18.30;99.90;;;;;;5004044;28;20484;-75
2023/07/07 06:45:29;;;;;;;;;;;18.40;99.90;;;;;;4999237;28;19925;-75
2023/07/07 06:47:58;;;;;;;;;;;18.50;99.90;;;;;;5032331;28;19925;-77
2023/07/07 06:50:36;;;;;;;;;;;18.60;99.90;;;;;;5029991;28;19940;-75
2023/07/07 06:53:02;;;;;;;;;;;18.80;99.90;;;;;;4998094;28;19932;-75
2023/07/07 06:55:29;;;;;;;;;;;18.90;99.90;;;;;;4995861;28;19929;-75
2023/07/07 06:58:02;;;;;;;;;;;19.10;99.90;;;;;;4994835;28;20846;-77
2023/07/07 07:00:30;;;;;;;;;;;18.00;99.90;;;;;;4997855;28;19929;-68
2023/07/07 07:02:55;;;;;;;;;;;19.40;99.90;;;;;;4995837;28;19929;-72
2023/07/07 07:05:52;;;;;;;;;;;19.50;99.90;;;;;;5011836;28;20003;-73
2023/07/07 07:08:43;;;;;;;;;;;19.70;99.90;;;;;;5015646;28;19935;-72
2023/07/07 07:11:10;;;;;;;;;;;19.90;99.90;;;;;;4993969;28;19920;-71
2023/07/07 07:13:37;;;;;;;;;;;20.10;99.90;;;;;;4982684;28;19946;-72
2023/07/07 07:16:04;;;;;;;;;;;20.30;99.90;;;;;;5000859;28;19921;-71
2023/07/07 07:18:29;;;;;;;;;;;21.20;99.90;;;;;;4982233;28;20015;-71
2023/07/07 07:21:05;;;;;;;;;;;20.80;99.90;;;;;;5009204;28;20010;-72
2023/07/07 07:23:32;;;;;;;;;;;21.00;99.90;;;;;;4986112;28;19924;-71
2023/07/07 07:26:13;;;;;;;;;;;21.10;99.90;;;;;;5030530;28;19993;-73
2023/07/07 07:28:38;;;;;;;;;;;21.30;99.90;;;;;;5045696;28;19929;-74
2023/07/07 07:31:05;;;;;;;;;;;21.40;99.90;;;;;;5013243;28;19932;-72
2023/07/07 07:33:34;;;;;;;;;;;21.60;99.90;;;;;;5013478;28;19978;-72
2023/07/07 07:36:00;;;;;;;;;;;21.70;99.90;;;;;;5016740;28;19925;-72
2023/07/07 07:38:29;;;;;;;;;;;21.90;99.90;;;;;;5013820;28;19928;-72
2023/07/07 07:40:56;;;;;;;;;;;22.10;99.90;;;;;;5016283;28;19938;-76
2023/07/07 07:43:24;;;;;;;;;;;22.20;99.90;;;;;;5032443;28;19925;-74
2023/07/07 07:46:00;;;;;;;;;;;22.40;99.90;;;;;;4983774;28;19936;-75
2023/07/07 07:48:28;;;;;;;;;;;22.60;99.90;;;;;;5014867;28;20003;-74
2023/07/07 07:51:05;;;;;;;;;;;22.60;99.90;;;;;;5029128;28;19990;-74
2023/07/07 07:53:51;;;;;;;;;;;22.70;99.90;;;;;;5015033;28;20291;-73
2023/07/07 07:56:21;;;;;;;;;;;22.90;99.90;;;;;;4998848;28;19931;-73
2023/07/07 07:58:47;;;;;;;;;;;23.00;99.90;;;;;;5008935;28;19924;-73
2023/07/07 08:01:23;;;;;;;;;;;23.20;99.90;;;;;;5018979;28;20468;-74
2023/07/07 08:03:59;;;;;;;;;;;23.20;99.90;;;;;;5030087;28;19920;-75
2023/07/07 08:06:25;;;;;;;;;;;23.40;99.90;;;;;;5011325;28;20291;-74
2023/07/07 08:08:53;;;;;;;;;;;23.40;99.90;;;;;;5031120;28;19925;-75
2023/07/07 08:11:49;;;;;;;;;;;23.30;99.90;;;;;;5034205;28;20256;-74
2023/07/07 08:14:20;;;;;;;;;;;23.30;99.90;;;;;;5010302;28;19925;-74
2023/07/07 08:16:55;;;;;;;;;;;23.30;99.90;;;;;;5033055;28;20012;-74
2023/07/07 08:19:33;;;;;;;;;;;23.50;99.90;;;;;;5014059;28;19924;-72
2023/07/07 08:22:30;;;;;;;;;;;23.70;99.90;;;;;;5017923;28;19935;-75
2023/07/07 08:24:57;;;;;;;;;;;23.80;99.90;;;;;;5013802;28;19921;-73
2023/07/07 08:27:34;;;;;;;;;;;24.00;99.90;;;;;;5028883;28;19935;-74
2023/07/07 08:30:04;;;;;;;;;;;24.30;99.90;;;;;;5031355;28;19971;-73
2023/07/07 08:32:33;;;;;;;;;;;24.50;99.90;;;;;;5008192;28;19924;-72
2023/07/07 08:35:23;;;;;;;;;;;24.70;99.90;;;;;;4995127;28;19932;-73
2023/07/07 08:37:56;;;;;;;;;;;25.00;99.90;;;;;;5028401;28;19920;-72
2023/07/07 08:40:26;;;;;;;;;;;25.20;99.90;;;;;;5011703;28;20059;-73
2023/07/07 08:42:57;;;;;;;;;;;25.40;99.90;;;;;;4979379;28;19982;-73
2023/07/07 08:45:43;;;;;;;;;;;25.50;99.90;;;;;;4997681;28;19929;-75
2023/07/07 08:48:08;;;;;;;;;;;25.70;99.90;;;;;;4995085;28;20458;-76
2023/07/07 08:50:52;;;;;;;;;;;25.90;99.90;;;;;;4984196;28;20162;-78
2023/07/07 08:53:30;;;;;;;;;;;26.10;99.50;;;;;;4999287;28;19987;-76
2023/07/07 08:55:56;;;;;;;;;;;26.20;98.40;;;;;;4996642;28;19940;-75
2023/07/07 08:58:36;;;;;;;;;;;26.50;98.70;;;;;;5017428;28;19921;-78
2023/07/07 09:01:19;;;;;;;;;;;26.60;99.60;;;;;;5018597;28;19933;-73
2023/07/07 09:03:50;;;;;;;;;;;26.80;98.10;;;;;;5017858;28;19929;-72
2023/07/07 09:06:31;;;;;;;;;;;26.80;98.20;;;;;;5020328;28;19929;-71
2023/07/07 09:09:00;;;;;;;;;;;26.90;96.70;;;;;;5017786;28;19960;-72
2023/07/07 09:11:51;;;;;;;;;;;27.00;97.60;;;;;;5020132;28;20367;-72
2023/07/07 09:14:35;;;;;;;;;;;26.90;96.80;;;;;;4993846;28;19925;-71
2023/07/07 09:17:21;;;;;;;;;;;27.10;96.10;;;;;;5014629;28;20508;-73
2023/07/07 09:19:54;;;;;;;;;;;27.10;96.20;;;;;;5014467;28;20006;-74
2023/07/07 09:22:23;;;;;;;;;;;27.30;95.80;;;;;;5016664;28;19969;-73
2023/07/07 09:25:02;;;;;;;;;;;27.40;96.30;;;;;;5047184;28;19921;-76
2023/07/07 09:27:37;;;;;;;;;;;27.60;94.00;;;;;;5033724;28;19938;-73
2023/07/07 09:30:27;;;;;;;;;;;27.80;94.60;;;;;;5018765;28;19985;-75
2023/07/07 09:32:53;;;;;;;;;;;27.90;93.70;;;;;;4959134;28;19936;-72
2023/07/07 09:35:19;;;;;;;;;;;27.90;94.30;;;;;;5012556;28;20384;-74
2023/07/07 09:37:51;;;;;;;;;;;28.10;93.60;;;;;;5020265;28;19997;-76
2023/07/07 09:40:34;;;;;;;;;;;28.10;93.80;;;;;;5033902;28;19978;-77
2023/07/07 09:43:14;;;;;;;;;;;28.50;91.40;;;;;;5016143;28;20418;-73
2023/07/07 09:45:43;;;;;;;;;;;28.80;91.80;;;;;;5019342;28;20019;-75
2023/07/07 09:48:27;;;;;;;;;;;28.90;90.40;;;;;;5002367;28;19931;-75
2023/07/07 09:51:08;;;;;;;;;;;29.00;89.80;;;;;;5031070;28;20397;-75
2023/07/07 09:53:35;;;;;;;;;;;29.10;89.70;;;;;;5016511;28;19932;-75
2023/07/07 09:56:03;;;;;;;;;;;29.40;87.10;;;;;;5013802;28;19994;-78
2023/07/07 09:58:57;;;;;;;;;;;29.60;90.20;;;;;;5018327;28;19924;-73
2023/07/07 10:01:36;;;;;;;;;;;29.80;86.20;;;;;;5013258;28;20002;-75
2023/07/07 10:04:29;;;;;;;;;;;29.90;85.00;;;;;;5024166;28;20378;-75
2023/07/07 10:07:22;;;;;;;;;;;30.00;85.40;;;;;;5032973;28;20397;-75
2023/07/07 10:09:49;;;;;;;;;;;29.90;83.90;;;;;;5014375;28;21320;-75
2023/07/07 10:12:15;;;;;;;;;;;30.10;79.80;;;;;;5027383;28;19924;-73
2023/07/07 10:18:05;;;;;;;;;;;30.20;79.90;;;;;;4999845;28;19924;-73
2023/07/07 10:20:47;;;;;;;;;;;30.20;76.80;;;;;;5002941;28;19924;-74
2023/07/07 10:23:53;;;;;;;;;;;30.10;77.70;;;;;;5013370;28;19935;-75
2023/07/07 10:26:25;;;;;;;;;;;30.00;81.00;;;;;;5018666;28;20475;-73
2023/07/07 10:29:51;;;;;;;;;;;29.90;77.80;;;;;;4995264;28;20315;-73
2023/07/07 10:32:25;;;;;;;;;;;30.10;75.60;;;;;;5016967;28;20327;-74
2023/07/07 10:35:36;;;;;;;;;;;30.30;75.70;;;;;;5030948;28;20184;-75
2023/07/07 10:38:29;;;;;;;;;;;30.70;75.70;;;;;;5015993;28;19946;-73
2023/07/07 10:40:56;;;;;;;;;;;30.90;77.70;;;;;;5001547;28;19931;-74
2023/07/07 10:43:23;;;;;;;;;;;30.90;76.20;;;;;;5019436;28;19931;-74
2023/07/07 10:45:49;;;;;;;;;;;31.00;79.20;;;;;;5016076;28;20051;-73
2023/07/07 10:48:15;;;;;;;;;;;31.20;74.30;;;;;;5018498;28;19935;-73
2023/07/07 10:50:54;;;;;;;;;;;31.20;74.70;;;;;;5013431;28;19929;-73
2023/07/07 10:53:19;;;;;;;;;;;31.20;76.50;;;;;;4999683;28;19929;-74
2023/07/07 10:55:57;;;;;;;;;;;31.30;73.10;;;;;;5013654;28;19924;-73
2023/07/07 10:58:41;;;;;;;;;;;31.40;72.20;;;;;;5014706;28;19939;-74
2023/07/07 11:01:19;;;;;;;;;;;31.40;72.80;;;;;;5014590;28;19931;-74
2023/07/07 11:04:08;;;;;;;;;;;31.10;76.10;;;;;;5017164;28;19931;-74
2023/07/07 11:06:46;;;;;;;;;;;31.20;74.60;;;;;;5029423;28;20981;-73
2023/07/07 11:09:11;;;;;;;;;;;31.10;73.60;;;;;;5018987;28;19967;-73
2023/07/07 11:11:46;;;;;;;;;;;31.10;70.40;;;;;;5017685;28;20011;-72
2023/07/07 11:14:30;;;;;;;;;;;31.10;70.60;;;;;;5018588;28;19925;-73
2023/07/07 11:16:59;;;;;;;;;;;31.20;73.30;;;;;;5030613;28;19928;-74
2023/07/07 11:19:31;;;;;;;;;;;31.40;72.60;;;;;;5028215;28;19929;-73
2023/07/07 11:21:57;;;;;;;;;;;31.60;73.90;;;;;;5016816;28;19934;-73
2023/07/07 11:24:40;;;;;;;;;;;31.50;74.10;;;;;;5047688;28;19928;-73
2023/07/07 11:27:18;;;;;;;;;;;31.50;76.80;;;;;;5016542;28;19979;-74
2023/07/07 11:29:46;;;;;;;;;;;31.70;72.60;;;;;;5017064;28;20284;-73
2023/07/07 11:32:35;;;;;;;;;;;31.80;71.80;;;;;;5033830;28;19937;-72
2023/07/07 11:35:01;;;;;;;;;;;31.70;72.50;;;;;;5049390;28;20020;-73
2023/07/07 11:37:48;;;;;;;;;;;31.60;72.40;;;;;;5017157;28;19931;-72
2023/07/07 11:40:28;;;;;;;;;;;31.60;71.10;;;;;;5022298;28;19955;-73
2023/07/07 11:43:13;;;;;;;;;;;31.70;67.60;;;;;;5017712;28;20363;-73
2023/07/07 11:45:39;;;;;;;;;;;31.70;71.30;;;;;;5016684;28;19929;-71
2023/07/07 11:48:24;;;;;;;;;;;31.60;69.30;;;;;;5021328;28;20704;-71
2023/07/07 11:51:13;;;;;;;;;;;31.80;70.60;;;;;;5017088;28;19970;-72
2023/07/07 11:53:58;;;;;;;;;;;32.00;69.70;;;;;;4991759;28;19970;-73
2023/07/07 11:56:32;;;;;;;;;;;31.90;68.60;;;;;;5034108;28;19936;-73
2023/07/07 11:58:58;;;;;;;;;;;31.90;71.80;;;;;;5017411;28;19942;-74
2023/07/07 12:01:36;;;;;;;;;;;31.70;69.40;;;;;;5049939;28;19929;-73
2023/07/07 12:04:20;;;;;;;;;;;31.90;68.30;;;;;;5020589;28;20016;-78
2023/07/07 12:06:53;;;;;;;;;;;31.70;70.80;;;;;;5020571;28;19979;-76
2023/07/07 12:09:30;;;;;;;;;;;32.00;69.20;;;;;;5015876;28;20369;-77
2023/07/07 12:12:04;;;;;;;;;;;31.90;69.10;;;;;;5016721;28;20405;-76
2023/07/07 12:14:49;;;;;;;;;;;32.10;70.30;;;;;;5031764;28;19951;-76
2023/07/07 12:17:32;;;;;;;;;;;32.40;70.20;;;;;;5033625;28;19970;-76
2023/07/07 12:20:13;;;;;;;;;;;32.50;69.00;;;;;;5021139;28;19935;-76
2023/07/07 12:22:46;;;;;;;;;;;32.70;67.40;;;;;;5038977;28;19936;-77
2023/07/07 12:25:13;;;;;;;;;;;32.90;65.40;;;;;;5024058;28;19925;-76
2023/07/07 12:27:43;;;;;;;;;;;33.30;69.70;;;;;;5020577;28;19940;-76
2023/07/07 12:30:13;;;;;;;;;;;33.40;68.00;;;;;;5036101;28;20037;-76
2023/07/07 12:32:46;;;;;;;;;;;33.30;67.50;;;;;;5008094;28;20036;-76
2023/07/07 12:35:14;;;;;;;;;;;33.30;67.90;;;;;;5022003;28;19956;-76
2023/07/07 12:37:44;;;;;;;;;;;33.30;67.80;;;;;;5037313;28;19925;-76
2023/07/07 12:40:10;;;;;;;;;;;33.40;65.70;;;;;;5019203;28;19927;-76
2023/07/07 12:42:46;;;;;;;;;;;33.40;68.30;;;;;;5037821;28;20496;-76
2023/07/07 12:45:21;;;;;;;;;;;33.10;65.80;;;;;;5037767;28;19950;-76
2023/07/07 12:47:50;;;;;;;;;;;33.00;67.90;;;;;;5022455;28;20177;-77
2023/07/07 12:50:25;;;;;;;;;;;32.80;65.60;;;;;;5018995;28;19970;-76
2023/07/07 12:53:03;;;;;;;;;;;32.80;67.50;;;;;;5038777;28;20362;-76
2023/07/07 12:55:29;;;;;;;;;;;32.90;65.80;;;;;;5003560;28;19951;-76
2023/07/07 12:58:07;;;;;;;;;;;32.70;63.60;;;;;;5035075;28;19924;-76
2023/07/07 13:00:35;;;;;;;;;;;32.80;64.80;;;;;;5004079;28;19932;-76
2023/07/07 13:03:10;;;;;;;;;;;32.90;65.60;;;;;;5023717;28;19924;-76
2023/07/07 13:05:43;;;;;;;;;;;33.10;63.80;;;;;;5021058;28;19931;-76
2023/07/07 13:08:44;;;;;;;;;;;33.00;63.60;;;;;;5023440;28;19931;-76
2023/07/07 13:11:15;;;;;;;;;;;33.20;63.80;;;;;;5010566;28;20509;-76
2023/07/07 13:13:53;;;;;;;;;;;33.60;63.80;;;;;;5037246;28;19973;-77
2023/07/07 13:16:20;;;;;;;;;;;33.90;63.80;;;;;;5020260;28;19965;-77
2023/07/07 13:18:46;;;;;;;;;;;33.60;64.90;;;;;;5022535;28;19929;-77
2023/07/07 13:21:15;;;;;;;;;;;33.80;63.20;;;;;;5034913;28;19924;-77
2023/07/07 13:23:49;;;;;;;;;;;33.80;63.50;;;;;;5025035;28;19935;-76
2023/07/07 13:26:29;;;;;;;;;;;34.00;63.70;;;;;;5023237;28;19978;-76
2023/07/07 13:29:03;;;;;;;;;;;34.00;62.10;;;;;;5022449;28;19924;-77
2023/07/07 13:31:29;;;;;;;;;;;34.20;62.90;;;;;;4994481;28;20016;-77
2023/07/07 13:34:04;;;;;;;;;;;34.40;62.30;;;;;;4978907;28;19926;-77
2023/07/07 13:36:36;;;;;;;;;;;34.40;62.60;;;;;;4966520;28;19932;-77
2023/07/07 13:39:04;;;;;;;;;;;34.30;62.80;;;;;;4985699;28;19925;-77
2023/07/07 13:41:36;;;;;;;;;;;34.30;63.70;;;;;;4964701;28;20394;-76
2023/07/07 13:44:20;;;;;;;;;;;34.10;62.60;;;;;;4980198;28;20091;-78
2023/07/07 13:46:49;;;;;;;;;;;34.20;62.60;;;;;;4977724;28;20391;-76
2023/07/07 13:49:18;;;;;;;;;;;34.40;61.50;;;;;;4994936;28;19925;-77
2023/07/07 13:51:52;;;;;;;;;;;34.60;64.10;;;;;;4980452;28;20024;-75
2023/07/07 13:54:21;;;;;;;;;;;34.50;63.70;;;;;;4982244;28;20003;-76
2023/07/07 13:56:50;;;;;;;;;;;34.50;59.90;;;;;;4983048;28;19939;-76
2023/07/07 13:59:32;;;;;;;;;;;34.60;64.90;;;;;;4994098;28;19968;-76
2023/07/07 14:01:58;;;;;;;;;;;34.40;64.50;;;;;;5007219;28;20506;-75
2023/07/07 14:04:32;;;;;;;;;;;34.30;61.00;;;;;;5004404;28;20283;-76
2023/07/07 14:06:58;;;;;;;;;;;34.60;61.80;;;;;;5008645;28;20326;-75
2023/07/07 14:09:27;;;;;;;;;;;34.50;61.20;;;;;;5021515;28;19925;-76
2023/07/07 14:11:57;;;;;;;;;;;34.60;63.80;;;;;;5035332;28;19920;-75
2023/07/07 14:14:29;;;;;;;;;;;34.50;60.30;;;;;;5022301;28;19924;-75
2023/07/07 14:17:07;;;;;;;;;;;34.50;61.50;;;;;;5005865;28;19940;-76
2023/07/07 14:19:33;;;;;;;;;;;34.60;62.00;;;;;;5035730;28;20453;-72
2023/07/07 14:22:01;;;;;;;;;;;34.60;60.00;;;;;;5024055;28;19925;-73
2023/07/07 14:24:29;;;;;;;;;;;34.50;60.90;;;;;;5020258;28;19933;-73
2023/07/07 14:26:55;;;;;;;;;;;34.30;61.00;;;;;;5018722;28;19959;-72
2023/07/07 14:29:34;;;;;;;;;;;34.50;62.10;;;;;;5020852;28;20282;-76
2023/07/07 14:32:01;;;;;;;;;;;34.60;60.00;;;;;;5004853;28;19927;-77
2023/07/07 14:34:27;;;;;;;;;;;34.50;61.20;;;;;;5033063;28;19947;-75
2023/07/07 14:36:55;;;;;;;;;;;34.00;60.00;;;;;;5005002;28;20314;-77
2023/07/07 14:39:20;;;;;;;;;;;33.80;60.90;;;;;;5039042;28;19925;-74
2023/07/07 14:41:53;;;;;;;;;;;33.70;60.60;;;;;;5035086;28;19935;-75
2023/07/07 14:44:37;;;;;;;;;;;33.70;59.60;;;;;;5035276;28;19947;-76
2023/07/07 14:47:03;;;;;;;;;;;33.90;61.00;;;;;;5017907;28;19925;-75
2023/07/07 14:49:28;;;;;;;;;;;33.90;61.60;;;;;;5018398;28;20432;-75
2023/07/07 14:51:55;;;;;;;;;;;33.80;60.20;;;;;;5034966;28;19947;-74
2023/07/07 14:54:27;;;;;;;;;;;33.90;61.80;;;;;;5020123;28;19975;-74
2023/07/07 14:56:55;;;;;;;;;;;33.80;62.40;;;;;;5022564;28;19932;-74
2023/07/07 14:59:32;;;;;;;;;;;33.50;61.30;;;;;;5005661;28;19925;-73
2023/07/07 15:02:00;;;;;;;;;;;33.50;59.50;;;;;;5015775;28;19925;-74
2023/07/07 15:04:30;;;;;;;;;;;33.60;60.10;;;;;;5006480;28;19935;-74
2023/07/07 15:07:10;;;;;;;;;;;33.40;60.90;;;;;;5033456;28;19983;-74
2023/07/07 15:09:37;;;;;;;;;;;33.30;58.10;;;;;;5019096;28;20367;-74
2023/07/07 15:12:03;;;;;;;;;;;33.20;58.20;;;;;;4985786;28;20501;-73
2023/07/07 15:14:29;;;;;;;;;;;33.20;59.00;;;;;;5016255;28;19929;-74
2023/07/07 15:17:01;;;;;;;;;;;33.10;59.70;;;;;;5031883;28;20294;-73
2023/07/07 15:19:28;;;;;;;;;;;32.70;58.40;;;;;;5030958;28;19924;-74
2023/07/07 15:22:23;;;;;;;;;;;33.00;58.90;;;;;;5032756;28;19936;-77
2023/07/07 15:24:57;;;;;;;;;;;33.10;58.20;;;;;;5018979;28;20454;-75
2023/07/07 15:27:52;;;;;;;;;;;33.10;60.10;;;;;;5015093;28;19932;-72
2023/07/07 15:30:32;;;;;;;;;;;33.00;58.00;;;;;;5024875;28;19935;-73
2023/07/07 15:32:59;;;;;;;;;;;33.20;59.10;;;;;;5000336;28;19925;-73
2023/07/07 15:35:29;;;;;;;;;;;33.20;59.50;;;;;;5032547;28;19940;-73
2023/07/07 15:38:01;;;;;;;;;;;33.10;59.00;;;;;;5016253;28;20382;-75
2023/07/07 15:40:30;;;;;;;;;;;33.10;58.50;;;;;;5019857;28;19920;-73
2023/07/07 15:43:05;;;;;;;;;;;33.10;59.10;;;;;;5037036;28;19925;-73
2023/07/07 15:45:31;;;;;;;;;;;32.90;58.70;;;;;;5037438;28;19928;-73
2023/07/07 15:47:58;;;;;;;;;;;32.90;58.90;;;;;;5023218;28;20016;-72
2023/07/07 15:50:25;;;;;;;;;;;32.80;58.20;;;;;;5019412;28;19932;-73
2023/07/07 15:52:50;;;;;;;;;;;32.70;59.60;;;;;;5018043;28;19979;-74
2023/07/07 15:55:16;;;;;;;;;;;32.50;58.90;;;;;;5034886;28;20286;-72
2023/07/07 15:57:45;;;;;;;;;;;32.40;59.00;;;;;;5055039;28;19932;-73
2023/07/07 16:00:25;;;;;;;;;;;32.20;59.90;;;;;;5035809;28;19921;-73
2023/07/07 16:03:01;;;;;;;;;;;32.00;57.90;;;;;;5033020;28;19931;-72
2023/07/07 16:05:28;;;;;;;;;;;31.80;59.30;;;;;;5022287;28;19932;-73
2023/07/07 16:08:04;;;;;;;;;;;31.70;59.10;;;;;;5021670;28;19921;-73
2023/07/07 16:10:40;;;;;;;;;;;31.70;60.40;;;;;;4998797;28;20203;-75
2023/07/07 16:13:05;;;;;;;;;;;31.60;59.40;;;;;;5015532;28;20007;-72
2023/07/07 16:15:31;;;;;;;;;;;31.50;58.30;;;;;;5017728;28;20294;-72
2023/07/07 16:18:03;;;;;;;;;;;31.50;58.90;;;;;;5035570;28;19929;-73
2023/07/07 16:20:38;;;;;;;;;;;31.40;61.10;;;;;;5020079;28;19924;-73
2023/07/07 16:23:04;;;;;;;;;;;31.40;60.10;;;;;;5015730;28;19970;-73
2023/07/07 16:25:35;;;;;;;;;;;31.30;60.30;;;;;;5015881;28;19921;-73
2023/07/07 16:28:21;;;;;;;;;;;31.00;59.60;;;;;;5022893;28;19971;-73
2023/07/07 16:30:47;;;;;;;;;;;31.00;61.00;;;;;;5000503;28;19928;-75
2023/07/07 16:33:23;;;;;;;;;;;30.90;60.40;;;;;;5018619;28;19932;-72
2023/07/07 16:35:51;;;;;;;;;;;30.90;60.40;;;;;;5033343;28;19929;-72
2023/07/07 16:38:16;;;;;;;;;;;30.80;61.10;;;;;;5004544;28;20036;-72
2023/07/07 16:40:58;;;;;;;;;;;30.60;60.30;;;;;;5018312;28;19943;-73
2023/07/07 16:43:24;;;;;;;;;;;30.50;60.90;;;;;;5018246;28;20636;-75
2023/07/07 16:45:51;;;;;;;;;;;30.30;61.40;;;;;;5034002;28;19924;-73
2023/07/07 16:48:17;;;;;;;;;;;30.20;61.20;;;;;;5000424;28;19932;-73
2023/07/07 16:50:45;;;;;;;;;;;30.00;59.70;;;;;;5000653;28;20015;-72
2023/07/07 16:53:15;;;;;;;;;;;29.80;60.60;;;;;;5014775;28;19948;-75
2023/07/07 16:55:42;;;;;;;;;;;29.80;62.00;;;;;;5019620;28;20029;-73
2023/07/07 16:58:13;;;;;;;;;;;29.70;62.40;;;;;;5002621;28;19932;-74
2023/07/07 17:00:42;;;;;;;;;;;29.70;62.00;;;;;;5034237;28;19964;-74
2023/07/07 17:03:11;;;;;;;;;;;29.70;62.10;;;;;;5031254;28;20021;-73
2023/07/07 17:05:41;;;;;;;;;;;29.60;62.00;;;;;;5018498;28;19924;-75
2023/07/07 17:08:11;;;;;;;;;;;29.50;61.80;;;;;;5008405;28;19927;-75